createdAt,value
2017-07-20T00:07:43.000Z,67.5
2017-07-20T00:17:43.000Z,67.5
2017-07-20T00:27:43.000Z,67.2
2017-07-20T00:37:43.000Z,67.6
2017-07-20T00:47:43.000Z,67.4
2017-07-20T00:57:43.000Z,67.3
2017-07-20T01:07:43.000Z,67.6
2017-07-20T01:17:43.000Z,67.6
2017-07-20T01:27:43.000Z,67.6
2017-07-20T01:37:43.000Z,68
2017-07-20T01:47:43.000Z,67.9
2017-07-20T01:57:43.000Z,68.1
2017-07-20T02:07:43.000Z,68.1
2017-07-20T02:17:43.000Z,68.1
2017-07-20T02:27:43.000Z,68
2017-07-20T02:37:43.000Z,68.2
2017-07-20T02:47:43.000Z,68.1
2017-07-20T02:57:43.000Z,68.3
2017-07-20T03:07:43.000Z,68.1
2017-07-20T03:17:43.000Z,68.3
2017-07-20T03:27:43.000Z,68.5
2017-07-20T03:37:43.000Z,68.1
2017-07-20T03:47:43.000Z,68.3
2017-07-20T03:57:43.000Z,68.3
2017-07-20T04:07:43.000Z,68.2
2017-07-20T04:17:43.000Z,67.9
2017-07-20T04:27:43.000Z,67.9
2017-07-20T04:37:43.000Z,68.2
2017-07-20T04:47:43.000Z,68.7
2017-07-20T04:57:43.000Z,68.7
2017-07-20T05:07:43.000Z,69.4
2017-07-20T05:17:43.000Z,69.3
2017-07-20T05:27:43.000Z,69.8
2017-07-20T05:37:44.000Z,69.8
2017-07-20T05:47:44.000Z,69.9
2017-07-20T05:57:44.000Z,70
2017-07-20T06:07:44.000Z,69.7
2017-07-20T06:17:44.000Z,69.3
2017-07-20T06:27:44.000Z,70
2017-07-20T06:37:44.000Z,69.6
2017-07-20T06:47:44.000Z,68.9
2017-07-20T06:57:44.000Z,68.7
2017-07-20T07:07:44.000Z,69.3
2017-07-20T07:17:44.000Z,69
2017-07-20T07:27:44.000Z,68.6
2017-07-20T07:37:44.000Z,69.2
2017-07-20T07:47:44.000Z,69.4
2017-07-20T07:57:44.000Z,69.3
2017-07-20T08:07:44.000Z,68.2
2017-07-20T08:17:44.000Z,67.2
2017-07-20T08:27:44.000Z,66.5
2017-07-20T08:37:44.000Z,66.3
2017-07-20T08:47:44.000Z,66.3
2017-07-20T08:57:44.000Z,66.4
2017-07-20T09:07:44.000Z,66.1
2017-07-20T09:17:44.000Z,65.9
2017-07-20T09:27:45.000Z,65.7
2017-07-20T09:37:45.000Z,67
2017-07-20T09:47:44.000Z,67.1
2017-07-20T09:57:44.000Z,67.8
2017-07-20T10:07:44.000Z,67.9
2017-07-20T10:17:44.000Z,67.6
2017-07-20T10:27:44.000Z,67.2
2017-07-20T10:37:44.000Z,67.2
2017-07-20T10:47:44.000Z,66.7
2017-07-20T10:57:44.000Z,66
2017-07-20T11:07:44.000Z,65.2
2017-07-20T11:17:44.000Z,65.6
2017-07-20T11:27:46.000Z,65.3
2017-07-20T11:37:44.000Z,65.6
2017-07-20T11:47:44.000Z,64.9
2017-07-20T11:57:45.000Z,65.7
2017-07-20T12:07:45.000Z,65.7
2017-07-20T12:17:44.000Z,65.4
2017-07-20T12:27:44.000Z,64.8
2017-07-20T12:37:45.000Z,64.3
2017-07-20T12:47:45.000Z,63.9
2017-07-20T12:57:45.000Z,63.5
2017-07-20T13:07:45.000Z,63.4
2017-07-20T13:17:45.000Z,63.2
2017-07-20T13:27:45.000Z,62
2017-07-20T13:37:45.000Z,59.8
2017-07-20T13:47:46.000Z,59.4
2017-07-20T13:57:45.000Z,58.4
2017-07-20T14:07:45.000Z,55.6
2017-07-20T14:17:45.000Z,55.5
2017-07-20T14:27:45.000Z,54.8
2017-07-20T14:37:45.000Z,55.8
2017-07-20T14:47:45.000Z,55.2
2017-07-20T14:57:45.000Z,55.6
2017-07-20T15:07:45.000Z,53.9
2017-07-20T15:17:45.000Z,52.7
2017-07-20T15:27:45.000Z,52.4
2017-07-20T15:37:45.000Z,52.9
2017-07-20T15:47:45.000Z,53.5
2017-07-20T15:57:45.000Z,53.1
2017-07-20T16:07:45.000Z,52.5
2017-07-20T16:17:45.000Z,51.7
2017-07-20T16:37:46.000Z,48.8
2017-07-20T16:47:46.000Z,46.5
2017-07-20T16:57:45.000Z,46.8
2017-07-20T17:07:45.000Z,47.3
2017-07-20T17:17:45.000Z,47.5
2017-07-20T17:37:45.000Z,47.7
2017-07-20T17:47:45.000Z,48.1
2017-07-20T17:57:46.000Z,48.4
2017-07-20T18:07:45.000Z,48.3
2017-07-20T18:17:45.000Z,48.5
2017-07-20T18:27:45.000Z,48.9
2017-07-20T18:47:45.000Z,49.1
2017-07-20T18:57:45.000Z,50
2017-07-20T19:07:46.000Z,50.1
2017-07-20T19:17:45.000Z,50.5
2017-07-20T19:27:46.000Z,50.4
2017-07-20T19:37:46.000Z,51.4
2017-07-20T19:47:46.000Z,53.4
2017-07-20T19:57:46.000Z,54.1
2017-07-20T20:07:46.000Z,53.9
2017-07-20T20:17:46.000Z,53.7
2017-07-20T20:27:48.000Z,54.2
2017-07-20T20:37:46.000Z,54.2
2017-07-20T20:47:46.000Z,54.1
2017-07-20T20:57:46.000Z,54.1
2017-07-20T21:17:47.000Z,54
2017-07-20T21:37:46.000Z,53.9
2017-07-20T21:47:46.000Z,52.8
2017-07-20T21:57:46.000Z,53.2
2017-07-20T22:07:46.000Z,53.3
2017-07-20T22:17:46.000Z,53.7
2017-07-20T22:27:46.000Z,54
2017-07-20T22:37:46.000Z,54.1
2017-07-20T22:47:46.000Z,54.2
2017-07-20T22:57:46.000Z,54.4
2017-07-20T23:07:46.000Z,54.2
2017-07-20T23:17:46.000Z,54
2017-07-20T23:27:46.000Z,54.3
2017-07-20T23:37:46.000Z,54.2
2017-07-20T23:47:50.000Z,54.7
2017-07-20T23:57:46.000Z,54.7
